Time;durP1;ratioP1;P1;durP2;ratioP2;P2;SDS_P1;SDS_P2;PMS_P1;PMS_P2;Temp;Humidity;BMP_temperature;BMP_pressure;BME280_temperature;BME280_humidity;BME280_pressure;Samples;Min_cycle;Max_cycle;Signal;HPM_P1;HPM_P2
2023/11/11 00:02:26;;;;;;;3.33;0.80;;;;;;;;;;5042126;28;20595;-86
2023/11/11 00:04:53;;;;;;;2.47;1.00;;;;;;;;;;5044944;28;20505;-85
2023/11/11 00:07:23;;;;;;;1.50;0.97;;;;;;;;;;5035908;28;20544;-85
2023/11/11 00:09:51;;;;;;;0.70;0.57;;;;;;;;;;5037916;28;20476;-85
2023/11/11 00:12:21;;;;;;;1.10;1.00;;;;;;;;;;5042584;28;20458;-84
2023/11/11 00:14:51;;;;;;;2.00;1.07;;;;;;;;;;5034724;28;20446;-86
2023/11/11 00:17:22;;;;;;;2.23;1.00;;;;;;;;;;5043712;28;20455;-84
2023/11/11 00:19:54;;;;;;;0.67;0.67;;;;;;;;;;5033690;28;20450;-85
2023/11/11 00:22:25;;;;;;;3.47;1.10;;;;;;;;;;5041841;28;20468;-85
2023/11/11 00:24:54;;;;;;;0.60;0.60;;;;;;;;;;5041709;28;20477;-85
2023/11/11 00:27:22;;;;;;;0.73;0.73;;;;;;;;;;5042175;28;20483;-84
2023/11/11 00:29:56;;;;;;;1.07;1.00;;;;;;;;;;5036769;28;20447;-83
2023/11/11 00:32:24;;;;;;;2.57;1.33;;;;;;;;;;5039195;28;20464;-85
2023/11/11 00:34:54;;;;;;;2.37;1.10;;;;;;;;;;5036307;28;20465;-84
2023/11/11 00:37:30;;;;;;;1.53;1.40;;;;;;;;;;5044157;28;20460;-84
2023/11/11 00:40:27;;;;;;;1.57;1.47;;;;;;;;;;5045052;28;20512;-82
2023/11/11 00:43:02;;;;;;;1.30;1.20;;;;;;;;;;5031531;28;20458;-85
2023/11/11 00:48:59;;;;;;;1.80;1.70;;;;;;;;;;5060361;28;20485;-84
2023/11/11 00:51:27;;;;;;;1.77;1.37;;;;;;;;;;5474079;22;20623;-88
2023/11/11 00:53:58;;;;;;;2.13;1.93;;;;;;;;;;5001882;28;20448;-85
2023/11/11 00:56:28;;;;;;;2.47;2.03;;;;;;;;;;4970576;28;20472;-84
2023/11/11 00:59:00;;;;;;;5.90;3.30;;;;;;;;;;4986307;28;20468;-85
2023/11/11 01:01:37;;;;;;;3.70;3.40;;;;;;;;;;4978908;28;20464;-88
2023/11/11 01:04:04;;;;;;;6.20;4.00;;;;;;;;;;4989746;28;20499;-88
2023/11/11 01:06:36;;;;;;;4.83;4.10;;;;;;;;;;4992834;28;20464;-89
2023/11/11 01:09:04;;;;;;;4.80;3.97;;;;;;;;;;4995348;28;20471;-88
2023/11/11 01:14:12;;;;;;;8.03;4.70;;;;;;;;;;5067810;28;20456;-89
2023/11/11 01:16:43;;;;;;;5.70;4.57;;;;;;;;;;5078020;28;20546;-88
2023/11/11 01:19:10;;;;;;;7.67;6.10;;;;;;;;;;5096674;28;20545;-87
2023/11/11 01:21:38;;;;;;;9.17;6.50;;;;;;;;;;5097373;28;20423;-87
2023/11/11 01:24:08;;;;;;;7.90;6.17;;;;;;;;;;5095544;28;20582;-87
2023/11/11 01:26:36;;;;;;;8.60;7.73;;;;;;;;;;5095894;28;20747;-85
2023/11/11 01:29:12;;;;;;;9.90;7.33;;;;;;;;;;5089305;28;20474;-84
2023/11/11 01:31:45;;;;;;;10.93;8.23;;;;;;;;;;5078201;28;20447;-83
2023/11/11 01:34:13;;;;;;;12.27;9.40;;;;;;;;;;5065698;28;20456;-85
2023/11/11 01:36:42;;;;;;;10.20;9.17;;;;;;;;;;5076777;28;20464;-84
2023/11/11 01:39:10;;;;;;;11.20;9.97;;;;;;;;;;5074042;28;20459;-84
2023/11/11 01:41:37;;;;;;;11.73;9.60;;;;;;;;;;5073006;28;20457;-84
2023/11/11 01:44:06;;;;;;;12.50;9.40;;;;;;;;;;5085001;28;20501;-84
2023/11/11 01:46:37;;;;;;;11.53;10.20;;;;;;;;;;5076633;28;20480;-83
2023/11/11 01:49:16;;;;;;;10.83;9.70;;;;;;;;;;5078467;28;20475;-85
2023/11/11 01:51:44;;;;;;;12.43;10.40;;;;;;;;;;5079961;28;20449;-86
2023/11/11 01:54:12;;;;;;;11.73;10.60;;;;;;;;;;5070719;28;20883;-83
2023/11/11 01:56:42;;;;;;;11.30;10.07;;;;;;;;;;5081050;28;20469;-83
2023/11/11 01:59:13;;;;;;;17.53;11.27;;;;;;;;;;5082196;28;20460;-86
2023/11/11 02:01:49;;;;;;;14.07;10.80;;;;;;;;;;5088708;28;20465;-87
2023/11/11 02:04:21;;;;;;;11.97;9.90;;;;;;;;;;5086245;28;20457;-84
2023/11/11 02:07:05;;;;;;;11.93;9.30;;;;;;;;;;5089183;28;20427;-84
2023/11/11 02:09:34;;;;;;;11.20;9.73;;;;;;;;;;5087098;28;20472;-84
2023/11/11 02:12:04;;;;;;;11.10;9.70;;;;;;;;;;5085017;28;20447;-83
2023/11/11 02:14:35;;;;;;;13.17;10.30;;;;;;;;;;5084069;28;20477;-84
2023/11/11 02:17:16;;;;;;;9.53;8.53;;;;;;;;;;5078233;28;20443;-84
2023/11/11 02:19:48;;;;;;;12.97;8.60;;;;;;;;;;5076945;28;20463;-83
2023/11/11 02:22:22;;;;;;;8.67;7.30;;;;;;;;;;5077816;28;20467;-83
2023/11/11 02:25:11;;;;;;;8.53;7.47;;;;;;;;;;5076965;28;20476;-84
2023/11/11 02:27:40;;;;;;;8.73;6.90;;;;;;;;;;5083282;28;20483;-84
2023/11/11 02:30:17;;;;;;;8.13;6.43;;;;;;;;;;5084545;28;20501;-84
2023/11/11 02:32:48;;;;;;;9.80;7.10;;;;;;;;;;5071450;28;20443;-83
2023/11/11 02:35:16;;;;;;;6.63;5.97;;;;;;;;;;5084593;28;20467;-85
2023/11/11 02:37:46;;;;;;;9.10;7.03;;;;;;;;;;5083705;28;20448;-84
2023/11/11 02:40:21;;;;;;;12.60;5.93;;;;;;;;;;5075747;28;20531;-85
2023/11/11 02:42:53;;;;;;;8.87;6.80;;;;;;;;;;5077150;28;20987;-85
2023/11/11 02:45:25;;;;;;;8.00;6.30;;;;;;;;;;5089596;28;20494;-85
2023/11/11 02:47:53;;;;;;;8.13;6.20;;;;;;;;;;5079730;28;20462;-87
2023/11/11 02:50:40;;;;;;;9.03;7.17;;;;;;;;;;5085229;28;20428;-85
2023/11/11 02:53:12;;;;;;;11.23;7.17;;;;;;;;;;5078323;28;20445;-84
2023/11/11 02:55:39;;;;;;;11.67;7.50;;;;;;;;;;5074132;28;20464;-85
2023/11/11 02:58:10;;;;;;;8.53;7.50;;;;;;;;;;5065535;28;20448;-83
2023/11/11 03:00:40;;;;;;;9.30;8.13;;;;;;;;;;5074467;28;20445;-85
2023/11/11 03:03:08;;;;;;;12.13;7.50;;;;;;;;;;5075850;28;20453;-86
2023/11/11 03:05:42;;;;;;;10.90;7.30;;;;;;;;;;5070852;28;20627;-84
2023/11/11 03:08:11;;;;;;;10.37;7.40;;;;;;;;;;5077932;28;20455;-83
2023/11/11 03:10:44;;;;;;;8.73;6.83;;;;;;;;;;5078857;28;20449;-84
2023/11/11 03:13:12;;;;;;;11.77;8.00;;;;;;;;;;5078758;28;20456;-83
2023/11/11 03:15:39;;;;;;;9.23;7.27;;;;;;;;;;5080048;28;20470;-84
2023/11/11 03:18:07;;;;;;;10.80;7.13;;;;;;;;;;5071808;28;20446;-84
2023/11/11 03:20:35;;;;;;;9.00;7.40;;;;;;;;;;5081429;28;20462;-85
2023/11/11 03:23:08;;;;;;;10.83;8.13;;;;;;;;;;5080887;28;20483;-84
2023/11/11 03:25:40;;;;;;;11.07;8.53;;;;;;;;;;5070046;28;20507;-85
2023/11/11 03:28:10;;;;;;;11.03;7.87;;;;;;;;;;5218140;22;21595;-85
2023/11/11 03:30:37;;;;;;;12.20;7.07;;;;;;;;;;5067108;28;20503;-87
2023/11/11 03:33:09;;;;;;;11.43;7.57;;;;;;;;;;5064601;28;20449;-87
2023/11/11 03:35:39;;;;;;;8.13;6.80;;;;;;;;;;5059237;28;20537;-87
2023/11/11 03:38:11;;;;;;;10.53;7.17;;;;;;;;;;5071105;28;20503;-86
2023/11/11 03:40:42;;;;;;;8.40;6.77;;;;;;;;;;5050241;28;20436;-85
2023/11/11 03:43:09;;;;;;;8.60;7.03;;;;;;;;;;5049571;28;20532;-86
2023/11/11 03:45:42;;;;;;;9.30;6.10;;;;;;;;;;5044576;28;20489;-84
2023/11/11 03:48:13;;;;;;;8.53;6.07;;;;;;;;;;5041270;28;20505;-84
2023/11/11 03:50:42;;;;;;;5.70;5.10;;;;;;;;;;5040494;28;20446;-84
2023/11/11 03:53:12;;;;;;;7.80;5.20;;;;;;;;;;5058623;28;20434;-85
2023/11/11 03:55:40;;;;;;;9.67;5.53;;;;;;;;;;5057710;28;20497;-84
2023/11/11 03:58:12;;;;;;;9.63;4.80;;;;;;;;;;5057527;28;20443;-84
2023/11/11 04:00:44;;;;;;;5.00;4.03;;;;;;;;;;5043373;28;20453;-83
2023/11/11 04:03:16;;;;;;;5.80;4.07;;;;;;;;;;5043486;28;20449;-83
2023/11/11 04:05:46;;;;;;;6.20;4.13;;;;;;;;;;5031439;28;20490;-84
2023/11/11 04:08:14;;;;;;;4.20;3.80;;;;;;;;;;5039987;28;20453;-85
2023/11/11 04:10:42;;;;;;;5.63;3.60;;;;;;;;;;5040060;28;20576;-84
2023/11/11 04:13:12;;;;;;;3.30;2.97;;;;;;;;;;5048714;28;20476;-84
2023/11/11 04:15:39;;;;;;;4.17;3.47;;;;;;;;;;5041359;28;20545;-84
2023/11/11 04:18:06;;;;;;;5.03;3.90;;;;;;;;;;5046778;28;20449;-84
2023/11/11 04:20:34;;;;;;;5.60;3.20;;;;;;;;;;5047304;28;20468;-84
2023/11/11 04:23:04;;;;;;;3.30;3.00;;;;;;;;;;5042862;28;20464;-86
2023/11/11 04:25:32;;;;;;;5.50;3.30;;;;;;;;;;5049215;28;20481;-85
2023/11/11 04:28:00;;;;;;;2.70;2.50;;;;;;;;;;5052940;28;20489;-85
2023/11/11 04:30:34;;;;;;;3.10;2.50;;;;;;;;;;5035430;28;20477;-83
2023/11/11 04:33:01;;;;;;;3.63;2.33;;;;;;;;;;5034291;28;20437;-84
2023/11/11 04:35:29;;;;;;;3.47;2.50;;;;;;;;;;5040830;28;20465;-85
2023/11/11 04:37:56;;;;;;;4.70;2.93;;;;;;;;;;5050853;28;20453;-85
2023/11/11 04:40:24;;;;;;;3.00;2.30;;;;;;;;;;5047417;28;20527;-84
2023/11/11 04:42:56;;;;;;;3.60;2.33;;;;;;;;;;5043794;28;20997;-85
2023/11/11 04:45:24;;;;;;;7.10;2.63;;;;;;;;;;5039495;28;21046;-84
2023/11/11 04:47:54;;;;;;;3.60;2.47;;;;;;;;;;5059986;28;20449;-84
2023/11/11 04:50:22;;;;;;;2.40;2.30;;;;;;;;;;5060660;28;20475;-86
2023/11/11 04:52:53;;;;;;;3.20;2.20;;;;;;;;;;5061743;28;20437;-85
2023/11/11 04:55:20;;;;;;;5.07;2.50;;;;;;;;;;5053713;28;20498;-84
2023/11/11 04:57:47;;;;;;;4.90;2.40;;;;;;;;;;5037147;28;20476;-84
2023/11/11 05:00:22;;;;;;;4.47;2.10;;;;;;;;;;5040426;28;20457;-84
2023/11/11 05:02:51;;;;;;;3.00;2.47;;;;;;;;;;5048155;28;20452;-85
2023/11/11 05:05:29;;;;;;;3.17;1.90;;;;;;;;;;5041608;28;20507;-85
2023/11/11 05:07:59;;;;;;;4.73;1.90;;;;;;;;;;5040406;28;20839;-84
2023/11/11 05:10:34;;;;;;;2.87;1.63;;;;;;;;;;5038275;28;20492;-85
2023/11/11 05:13:07;;;;;;;2.90;1.67;;;;;;;;;;5047727;28;20531;-84
2023/11/11 05:15:47;;;;;;;2.33;1.43;;;;;;;;;;5047921;28;20473;-85
2023/11/11 05:18:20;;;;;;;5.13;2.20;;;;;;;;;;5040787;28;20444;-85
2023/11/11 05:20:48;;;;;;;2.80;1.70;;;;;;;;;;5042697;28;20441;-86
2023/11/11 05:23:15;;;;;;;2.87;2.00;;;;;;;;;;5052768;28;20473;-85
2023/11/11 05:25:48;;;;;;;5.17;1.70;;;;;;;;;;5040597;28;20479;-85
2023/11/11 05:28:15;;;;;;;2.83;1.80;;;;;;;;;;5046178;28;20906;-85
2023/11/11 05:30:48;;;;;;;1.90;1.70;;;;;;;;;;5047123;28;20493;-85
2023/11/11 05:33:15;;;;;;;2.77;1.57;;;;;;;;;;5046901;28;20508;-85
2023/11/11 05:35:49;;;;;;;3.03;1.60;;;;;;;;;;5044103;28;20583;-87
2023/11/11 05:38:24;;;;;;;4.63;1.23;;;;;;;;;;5045813;28;20447;-85
2023/11/11 05:40:57;;;;;;;4.20;1.40;;;;;;;;;;5047921;28;20458;-86
2023/11/11 05:43:28;;;;;;;4.03;1.67;;;;;;;;;;5047134;28;20556;-85
2023/11/11 05:45:59;;;;;;;2.77;1.80;;;;;;;;;;5044569;28;20831;-84
2023/11/11 05:48:26;;;;;;;1.60;1.43;;;;;;;;;;5044833;28;20448;-86
2023/11/11 05:50:53;;;;;;;2.80;1.60;;;;;;;;;;5049726;28;20508;-84
2023/11/11 05:53:21;;;;;;;2.93;1.97;;;;;;;;;;5051092;28;20900;-85
2023/11/11 05:55:48;;;;;;;2.03;1.83;;;;;;;;;;5040834;28;20831;-86
2023/11/11 05:58:15;;;;;;;4.03;1.67;;;;;;;;;;5050174;28;20796;-85
2023/11/11 06:00:43;;;;;;;2.60;2.33;;;;;;;;;;5063473;28;20515;-85
2023/11/11 06:03:10;;;;;;;6.30;3.50;;;;;;;;;;5052539;28;20468;-85
2023/11/11 06:05:38;;;;;;;2.60;2.40;;;;;;;;;;5048366;28;20492;-85
2023/11/11 06:08:09;;;;;;;3.57;2.60;;;;;;;;;;5045716;28;20457;-85
2023/11/11 06:10:38;;;;;;;4.40;3.40;;;;;;;;;;5057843;28;20484;-85
2023/11/11 06:13:09;;;;;;;3.57;3.00;;;;;;;;;;5052062;28;20445;-85
2023/11/11 06:15:38;;;;;;;5.40;3.70;;;;;;;;;;5060051;28;20472;-85
2023/11/11 06:18:12;;;;;;;6.17;3.57;;;;;;;;;;5047123;28;20556;-85
2023/11/11 06:20:40;;;;;;;7.00;3.60;;;;;;;;;;5063819;28;20436;-86
2023/11/11 06:23:09;;;;;;;4.73;3.60;;;;;;;;;;5063189;28;20442;-88
2023/11/11 06:25:39;;;;;;;3.50;3.20;;;;;;;;;;5060342;28;20465;-88
2023/11/11 06:28:11;;;;;;;4.17;3.13;;;;;;;;;;5054223;28;20449;-86
2023/11/11 06:30:49;;;;;;;3.73;3.00;;;;;;;;;;5055174;28;20481;-87
2023/11/11 06:33:17;;;;;;;4.40;3.67;;;;;;;;;;5061033;28;20447;-86
2023/11/11 06:35:44;;;;;;;4.03;3.27;;;;;;;;;;5059756;28;20437;-86
2023/11/11 06:38:13;;;;;;;3.90;3.27;;;;;;;;;;5059400;28;20437;-88
2023/11/11 06:40:48;;;;;;;4.43;3.40;;;;;;;;;;5064647;28;20444;-86
2023/11/11 06:43:18;;;;;;;7.60;3.73;;;;;;;;;;5056150;28;20500;-88
2023/11/11 06:45:47;;;;;;;3.53;3.23;;;;;;;;;;5061975;28;20523;-87
2023/11/11 06:48:22;;;;;;;4.30;3.30;;;;;;;;;;5047777;28;20425;-87
2023/11/11 06:50:51;;;;;;;5.60;3.60;;;;;;;;;;5053444;28;20472;-86
2023/11/11 06:53:19;;;;;;;3.77;3.10;;;;;;;;;;5042060;28;20457;-86
2023/11/11 06:55:49;;;;;;;5.47;4.13;;;;;;;;;;5052380;28;20468;-83
2023/11/11 06:58:22;;;;;;;5.10;4.07;;;;;;;;;;5047377;28;20850;-84
2023/11/11 07:00:53;;;;;;;4.37;3.23;;;;;;;;;;5043719;28;20445;-85
2023/11/11 07:03:23;;;;;;;5.70;3.70;;;;;;;;;;5044620;28;20449;-85
2023/11/11 07:05:52;;;;;;;4.17;3.77;;;;;;;;;;5040060;28;20491;-85
2023/11/11 07:08:28;;;;;;;4.70;3.20;;;;;;;;;;5048446;28;20475;-83
2023/11/11 07:11:04;;;;;;;6.13;3.50;;;;;;;;;;5042579;28;20474;-84
2023/11/11 07:13:35;;;;;;;5.37;3.37;;;;;;;;;;5042114;28;20464;-84
2023/11/11 07:16:06;;;;;;;7.17;3.90;;;;;;;;;;5050768;28;20465;-84
2023/11/11 07:18:38;;;;;;;5.10;4.37;;;;;;;;;;5052919;28;20483;-85
2023/11/11 07:21:10;;;;;;;6.70;4.70;;;;;;;;;;5041788;28;20972;-84
2023/11/11 07:23:38;;;;;;;6.27;4.23;;;;;;;;;;5036180;28;20463;-85
2023/11/11 07:26:11;;;;;;;7.50;4.87;;;;;;;;;;5034503;28;20479;-84
2023/11/11 07:28:40;;;;;;;7.93;4.87;;;;;;;;;;5052989;28;20487;-84
2023/11/11 07:31:14;;;;;;;5.70;4.00;;;;;;;;;;5059690;28;20453;-83
2023/11/11 07:33:43;;;;;;;7.43;4.93;;;;;;;;;;5065460;28;20438;-87
2023/11/11 07:36:13;;;;;;;7.33;4.80;;;;;;;;;;5065732;28;20537;-87
2023/11/11 07:38:41;;;;;;;10.00;5.30;;;;;;;;;;5057349;28;20433;-87
2023/11/11 07:41:10;;;;;;;7.50;4.90;;;;;;;;;;5054712;28;20446;-87
2023/11/11 07:43:38;;;;;;;5.30;4.53;;;;;;;;;;5045721;28;20457;-86
2023/11/11 07:46:09;;;;;;;8.10;4.90;;;;;;;;;;5065253;28;20484;-82
2023/11/11 07:48:37;;;;;;;8.60;5.73;;;;;;;;;;5069152;28;20452;-82
2023/11/11 07:51:07;;;;;;;7.90;5.43;;;;;;;;;;5054593;28;20527;-84
2023/11/11 07:53:34;;;;;;;8.23;4.63;;;;;;;;;;5066682;28;20448;-86
2023/11/11 07:56:07;;;;;;;9.03;5.10;;;;;;;;;;5057644;28;20493;-83
2023/11/11 07:58:38;;;;;;;11.00;5.53;;;;;;;;;;5058425;28;20514;-84
2023/11/11 08:01:07;;;;;;;9.67;6.00;;;;;;;;;;5049016;28;20450;-85
2023/11/11 08:03:44;;;;;;;9.80;5.30;;;;;;;;;;5048895;28;20458;-84
2023/11/11 08:06:29;;;;;;;8.20;5.10;;;;;;;;;;5041515;28;20480;-86
2023/11/11 08:12:54;;;;;;;7.60;4.83;;;;;;;;;;5034551;28;20442;-86
2023/11/11 08:18:12;;;;;;;8.77;5.60;;;;;;;;;;5055179;22;20486;-85
2023/11/11 08:20:56;;;;;;;7.70;5.87;;;;;;;;;;5025259;28;20446;-84
2023/11/11 08:23:43;;;;;;;6.57;4.93;;;;;;;;;;5024291;28;20459;-85
2023/11/11 08:26:11;;;;;;;8.30;5.53;;;;;;;;;;5032275;28;20541;-84
2023/11/11 08:28:38;;;;;;;8.83;6.10;;;;;;;;;;5035132;28;20446;-87
2023/11/11 08:31:06;;;;;;;11.80;5.67;;;;;;;;;;5043745;28;20555;-85
2023/11/11 08:33:36;;;;;;;7.43;5.23;;;;;;;;;;5040795;28;20450;-86
2023/11/11 08:36:07;;;;;;;9.63;5.80;;;;;;;;;;5033666;28;21004;-85
2023/11/11 08:38:37;;;;;;;10.33;5.97;;;;;;;;;;5035678;28;20541;-87
2023/11/11 08:41:04;;;;;;;8.33;4.80;;;;;;;;;;5031043;28;20476;-85
2023/11/11 08:43:32;;;;;;;7.17;5.30;;;;;;;;;;5041653;28;20456;-84
2023/11/11 08:46:01;;;;;;;8.30;5.67;;;;;;;;;;5033958;28;20480;-85
2023/11/11 08:48:30;;;;;;;7.30;4.90;;;;;;;;;;5035175;28;20466;-85
2023/11/11 08:50:57;;;;;;;8.20;5.37;;;;;;;;;;5040049;28;20508;-85
2023/11/11 08:53:25;;;;;;;8.70;4.90;;;;;;;;;;5039193;28;20441;-85
2023/11/11 08:55:53;;;;;;;7.93;5.00;;;;;;;;;;5041044;28;20465;-85
2023/11/11 08:58:22;;;;;;;9.60;4.87;;;;;;;;;;5034961;28;20541;-85
2023/11/11 09:00:50;;;;;;;11.00;4.73;;;;;;;;;;5027102;28;20523;-85
2023/11/11 09:03:18;;;;;;;6.57;4.43;;;;;;;;;;5040386;28;20460;-84
2023/11/11 09:05:46;;;;;;;9.03;5.10;;;;;;;;;;5045296;28;20480;-86
2023/11/11 09:08:15;;;;;;;10.13;5.47;;;;;;;;;;5044158;28;20462;-85
2023/11/11 09:10:43;;;;;;;9.10;5.17;;;;;;;;;;5042805;28;20553;-86
2023/11/11 09:13:24;;;;;;;9.17;5.43;;;;;;;;;;5038131;28;20465;-85
2023/11/11 09:16:04;;;;;;;9.17;5.10;;;;;;;;;;5040089;28;20473;-84
2023/11/11 09:18:47;;;;;;;6.10;4.43;;;;;;;;;;5041835;28;20485;-84
2023/11/11 09:21:14;;;;;;;10.97;5.00;;;;;;;;;;5045959;28;20549;-86
2023/11/11 09:23:41;;;;;;;7.47;4.57;;;;;;;;;;5036610;28;20459;-83
2023/11/11 09:26:08;;;;;;;8.07;5.07;;;;;;;;;;5043804;28;20484;-86
2023/11/11 09:28:38;;;;;;;7.10;5.10;;;;;;;;;;5020652;28;20522;-84
2023/11/11 09:31:20;;;;;;;5.50;4.43;;;;;;;;;;5043134;28;20594;-85
2023/11/11 09:33:48;;;;;;;5.97;3.83;;;;;;;;;;5042414;28;20889;-85
2023/11/11 09:36:18;;;;;;;8.70;4.50;;;;;;;;;;5044096;28;20508;-85
2023/11/11 09:38:48;;;;;;;9.10;6.93;;;;;;;;;;5034682;28;20492;-84
2023/11/11 09:41:20;;;;;;;8.57;4.87;;;;;;;;;;5041538;28;20471;-86
2023/11/11 09:43:48;;;;;;;9.27;5.17;;;;;;;;;;5031528;28;20469;-85
2023/11/11 09:46:21;;;;;;;6.30;4.40;;;;;;;;;;5038269;28;20477;-85
2023/11/11 09:48:49;;;;;;;9.00;4.80;;;;;;;;;;5029282;28;20472;-85
2023/11/11 09:51:17;;;;;;;7.33;4.40;;;;;;;;;;5035040;28;20538;-83
2023/11/11 09:53:45;;;;;;;7.13;4.30;;;;;;;;;;5033315;28;20453;-84
2023/11/11 09:56:14;;;;;;;6.50;4.57;;;;;;;;;;5040564;28;20477;-83
2023/11/11 09:58:48;;;;;;;5.10;4.10;;;;;;;;;;5030872;28;20843;-86
2023/11/11 10:01:17;;;;;;;7.10;4.20;;;;;;;;;;5043709;28;20481;-84
2023/11/11 10:03:47;;;;;;;6.60;3.60;;;;;;;;;;5031558;28;20458;-84
2023/11/11 10:06:15;;;;;;;13.40;5.43;;;;;;;;;;5031772;28;20552;-84
2023/11/11 10:08:43;;;;;;;6.40;3.70;;;;;;;;;;5041812;28;20449;-84
2023/11/11 10:11:12;;;;;;;5.67;4.00;;;;;;;;;;5041621;28;20540;-86
2023/11/11 10:13:40;;;;;;;5.57;3.70;;;;;;;;;;5031332;28;20469;-83
2023/11/11 10:16:17;;;;;;;5.57;3.37;;;;;;;;;;5033135;28;20497;-84
2023/11/11 10:18:49;;;;;;;5.50;3.50;;;;;;;;;;5044489;28;20503;-83
2023/11/11 10:21:19;;;;;;;5.80;3.97;;;;;;;;;;5022601;28;20458;-82
2023/11/11 10:24:09;;;;;;;8.40;3.73;;;;;;;;;;5037752;28;20446;-83
2023/11/11 10:26:42;;;;;;;7.10;4.00;;;;;;;;;;5046613;28;20464;-86
2023/11/11 10:29:12;;;;;;;5.20;3.03;;;;;;;;;;5050151;28;20453;-85
2023/11/11 10:31:43;;;;;;;6.97;3.10;;;;;;;;;;5050519;28;20477;-86
2023/11/11 10:34:15;;;;;;;7.20;3.03;;;;;;;;;;5050193;28;20473;-84
2023/11/11 10:36:46;;;;;;;8.00;3.73;;;;;;;;;;5033386;28;21063;-84
2023/11/11 10:39:15;;;;;;;6.03;3.13;;;;;;;;;;5046887;28;20458;-84
2023/11/11 10:41:47;;;;;;;6.23;3.13;;;;;;;;;;5037039;28;20480;-84
2023/11/11 10:44:14;;;;;;;8.17;3.70;;;;;;;;;;5042088;28;20980;-87
2023/11/11 10:46:43;;;;;;;6.67;3.23;;;;;;;;;;5045611;28;20458;-85
2023/11/11 10:49:15;;;;;;;4.63;3.13;;;;;;;;;;5037186;28;20448;-85
2023/11/11 10:52:20;;;;;;;5.80;3.50;;;;;;;;;;5051719;28;20906;-85
2023/11/11 10:54:52;;;;;;;4.53;3.13;;;;;;;;;;5039883;28;20446;-84
2023/11/11 10:57:43;;;;;;;6.20;3.23;;;;;;;;;;5042912;28;20480;-87
2023/11/11 11:00:26;;;;;;;4.97;3.77;;;;;;;;;;5032098;28;20443;-85
2023/11/11 11:02:59;;;;;;;4.00;2.63;;;;;;;;;;5038545;28;20441;-84
2023/11/11 11:05:58;;;;;;;4.20;3.30;;;;;;;;;;5042795;28;20978;-85
2023/11/11 11:08:34;;;;;;;3.97;2.80;;;;;;;;;;5047217;28;20442;-85
2023/11/11 11:11:14;;;;;;;7.43;3.00;;;;;;;;;;5042761;28;20476;-83
2023/11/11 11:13:45;;;;;;;3.10;2.77;;;;;;;;;;5050292;28;20453;-85
2023/11/11 11:16:17;;;;;;;6.80;3.60;;;;;;;;;;5030493;28;20481;-83
2023/11/11 11:19:10;;;;;;;6.30;2.90;;;;;;;;;;5031974;28;20517;-83
2023/11/11 11:22:11;;;;;;;5.97;3.00;;;;;;;;;;5039759;28;20520;-85
2023/11/11 11:24:39;;;;;;;6.10;3.77;;;;;;;;;;5020917;28;20452;-83
2023/11/11 11:27:13;;;;;;;3.40;3.00;;;;;;;;;;5044687;28;20966;-85
2023/11/11 11:29:42;;;;;;;6.20;3.00;;;;;;;;;;5052377;28;20437;-84
2023/11/11 11:32:10;;;;;;;5.70;3.47;;;;;;;;;;5038077;28;20554;-88
2023/11/11 11:34:42;;;;;;;3.07;2.27;;;;;;;;;;5047258;28;20449;-82
2023/11/11 11:37:12;;;;;;;3.00;2.37;;;;;;;;;;5045308;28;20493;-84
2023/11/11 11:40:00;;;;;;;2.83;2.53;;;;;;;;;;5040785;28;20934;-85
2023/11/11 11:42:33;;;;;;;2.70;2.23;;;;;;;;;;5043273;28;20532;-85
2023/11/11 11:45:15;;;;;;;3.63;2.67;;;;;;;;;;5033283;28;20457;-86
2023/11/11 11:47:43;;;;;;;3.60;2.50;;;;;;;;;;5047480;28;20458;-84
2023/11/11 11:50:11;;;;;;;4.60;2.53;;;;;;;;;;5047426;28;20481;-85
2023/11/11 11:52:40;;;;;;;4.23;2.90;;;;;;;;;;5032343;28;20948;-83
2023/11/11 11:55:08;;;;;;;3.20;2.90;;;;;;;;;;5037887;28;20481;-84
2023/11/11 11:57:52;;;;;;;4.37;2.70;;;;;;;;;;5038513;28;20481;-85
2023/11/11 12:00:27;;;;;;;3.63;2.50;;;;;;;;;;5033397;28;20473;-83
2023/11/11 12:03:05;;;;;;;4.80;2.50;;;;;;;;;;5028220;28;20497;-86
2023/11/11 12:05:32;;;;;;;4.20;2.70;;;;;;;;;;5038733;28;20498;-82
2023/11/11 12:08:01;;;;;;;5.90;2.93;;;;;;;;;;5039088;28;20502;-84
2023/11/11 12:10:42;;;;;;;8.53;2.60;;;;;;;;;;5044394;28;20437;-84
2023/11/11 12:13:12;;;;;;;4.67;3.67;;;;;;;;;;5034949;28;20460;-83
2023/11/11 12:15:48;;;;;;;3.27;2.67;;;;;;;;;;5032350;28;20453;-86
2023/11/11 12:18:17;;;;;;;5.43;2.70;;;;;;;;;;5033944;28;20448;-83
2023/11/11 12:20:47;;;;;;;7.53;5.00;;;;;;;;;;5033830;28;20917;-83
2023/11/11 12:23:16;;;;;;;3.60;2.17;;;;;;;;;;5034398;28;20449;-82
2023/11/11 12:25:44;;;;;;;6.23;2.70;;;;;;;;;;5034885;28;20521;-87
2023/11/11 12:28:13;;;;;;;3.80;2.03;;;;;;;;;;5035580;28;20488;-85
2023/11/11 12:30:41;;;;;;;3.20;2.33;;;;;;;;;;5039730;28;20786;-85
2023/11/11 12:33:10;;;;;;;2.80;2.20;;;;;;;;;;5046552;28;20541;-86
2023/11/11 12:35:42;;;;;;;2.93;1.60;;;;;;;;;;5045796;28;20485;-86
2023/11/11 12:38:27;;;;;;;5.03;2.10;;;;;;;;;;5040131;28;20481;-83
2023/11/11 12:41:14;;;;;;;4.30;2.07;;;;;;;;;;5030651;28;20432;-83
2023/11/11 12:43:44;;;;;;;5.63;1.90;;;;;;;;;;5042420;28;20453;-83
2023/11/11 12:46:24;;;;;;;2.33;1.80;;;;;;;;;;5033494;28;20557;-83
2023/11/11 12:48:55;;;;;;;3.90;2.17;;;;;;;;;;5035947;28;20458;-83
2023/11/11 12:51:30;;;;;;;2.73;1.97;;;;;;;;;;5040343;28;20484;-83
2023/11/11 12:53:59;;;;;;;5.33;2.10;;;;;;;;;;5042597;28;20457;-84
2023/11/11 12:56:27;;;;;;;4.03;1.63;;;;;;;;;;5046401;28;20461;-85
2023/11/11 12:59:09;;;;;;;4.07;2.07;;;;;;;;;;5038097;28;20449;-84
2023/11/11 13:01:38;;;;;;;3.20;1.80;;;;;;;;;;5029498;28;20585;-85
2023/11/11 13:04:21;;;;;;;4.27;1.87;;;;;;;;;;5046818;28;20445;-84
2023/11/11 13:07:23;;;;;;;4.20;1.97;;;;;;;;;;5050323;28;20493;-83
2023/11/11 13:09:51;;;;;;;6.47;2.20;;;;;;;;;;5048522;28;20456;-84
2023/11/11 13:12:22;;;;;;;3.00;2.70;;;;;;;;;;5047118;28;20910;-85
2023/11/11 13:14:54;;;;;;;2.70;2.20;;;;;;;;;;5043541;28;20949;-84
2023/11/11 13:17:28;;;;;;;4.53;2.33;;;;;;;;;;5047298;28;20441;-85
2023/11/11 13:19:57;;;;;;;3.07;2.00;;;;;;;;;;5030021;28;20477;-84
2023/11/11 13:22:28;;;;;;;2.90;1.83;;;;;;;;;;5030930;28;20457;-86
2023/11/11 13:25:00;;;;;;;1.47;1.30;;;;;;;;;;5039117;28;20491;-85
2023/11/11 13:27:32;;;;;;;1.67;1.43;;;;;;;;;;5039886;28;20501;-88
2023/11/11 13:30:01;;;;;;;2.03;1.13;;;;;;;;;;5039981;28;20481;-87
2023/11/11 13:32:30;;;;;;;1.33;1.00;;;;;;;;;;5036285;28;20458;-84
2023/11/11 13:34:58;;;;;;;1.80;1.30;;;;;;;;;;5046257;28;20469;-82
2023/11/11 13:37:28;;;;;;;3.43;1.10;;;;;;;;;;5044350;28;20856;-85
2023/11/11 13:39:59;;;;;;;2.97;1.20;;;;;;;;;;5037000;28;20450;-86
2023/11/11 13:42:29;;;;;;;1.03;0.80;;;;;;;;;;5041636;28;20522;-87
2023/11/11 13:45:06;;;;;;;1.10;1.00;;;;;;;;;;5049276;28;20472;-88
2023/11/11 13:47:34;;;;;;;1.80;1.30;;;;;;;;;;5046997;28;20502;-87
2023/11/11 13:50:05;;;;;;;1.53;1.03;;;;;;;;;;5047621;28;20438;-87
2023/11/11 13:52:38;;;;;;;2.30;1.70;;;;;;;;;;5049589;28;20494;-87
2023/11/11 13:55:16;;;;;;;2.80;1.50;;;;;;;;;;5208699;22;20529;-87
2023/11/11 13:57:45;;;;;;;2.17;1.40;;;;;;;;;;5023745;28;20446;-85
2023/11/11 14:00:20;;;;;;;2.73;1.50;;;;;;;;;;5040139;28;20452;-85
2023/11/11 14:02:50;;;;;;;1.13;1.03;;;;;;;;;;5040296;28;20465;-86
2023/11/11 14:05:20;;;;;;;3.77;3.47;;;;;;;;;;5039805;28;20485;-83
2023/11/11 14:07:48;;;;;;;29.93;15.87;;;;;;;;;;5022618;28;20473;-82
2023/11/11 14:10:18;;;;;;;1.43;1.33;;;;;;;;;;5028368;28;20546;-82
2023/11/11 14:12:58;;;;;;;2.20;1.10;;;;;;;;;;4996185;28;20482;-86
2023/11/11 14:15:39;;;;;;;1.40;1.30;;;;;;;;;;5267649;22;20474;-85
2023/11/11 14:18:22;;;;;;;1.37;1.27;;;;;;;;;;5046483;28;20433;-85
2023/11/11 14:21:00;;;;;;;2.77;1.80;;;;;;;;;;5024714;28;20446;-86
2023/11/11 14:23:37;;;;;;;2.00;1.50;;;;;;;;;;5063279;28;20461;-83
2023/11/11 14:26:11;;;;;;;1.63;1.30;;;;;;;;;;5055439;28;20454;-83
2023/11/11 14:28:39;;;;;;;1.47;1.37;;;;;;;;;;5050898;28;20458;-82
2023/11/11 14:31:37;;;;;;;1.80;1.70;;;;;;;;;;5030621;28;20565;-82
2023/11/11 14:34:09;;;;;;;2.43;1.40;;;;;;;;;;5041159;28;20448;-83
2023/11/11 14:36:38;;;;;;;3.03;1.43;;;;;;;;;;5027162;28;20473;-84
2023/11/11 14:39:12;;;;;;;1.70;1.60;;;;;;;;;;5062257;28;20454;-85
2023/11/11 14:41:47;;;;;;;4.20;2.63;;;;;;;;;;5027518;28;20481;-83
2023/11/11 14:44:22;;;;;;;2.20;1.73;;;;;;;;;;5042706;28;20453;-86
2023/11/11 14:46:59;;;;;;;1.53;1.37;;;;;;;;;;5030482;28;20885;-85
2023/11/11 14:49:32;;;;;;;3.70;1.70;;;;;;;;;;5037585;28;20450;-84
2023/11/11 14:52:02;;;;;;;1.80;1.47;;;;;;;;;;5027829;28;20489;-84
2023/11/11 14:54:34;;;;;;;1.60;1.50;;;;;;;;;;5059912;28;20546;-84
2023/11/11 14:57:05;;;;;;;1.80;1.50;;;;;;;;;;5054775;28;20792;-85
2023/11/11 14:59:33;;;;;;;5.30;2.33;;;;;;;;;;5029566;28;20447;-84
2023/11/11 15:02:10;;;;;;;4.07;2.57;;;;;;;;;;5027550;28;20454;-85
2023/11/11 15:04:41;;;;;;;2.10;1.87;;;;;;;;;;5043036;28;20875;-85
2023/11/11 15:07:10;;;;;;;3.80;1.60;;;;;;;;;;5060746;28;20446;-85
2023/11/11 15:09:39;;;;;;;1.93;1.83;;;;;;;;;;5059378;28;20462;-84
2023/11/11 15:12:07;;;;;;;4.93;3.60;;;;;;;;;;5027796;28;21021;-85
2023/11/11 15:14:34;;;;;;;3.80;2.10;;;;;;;;;;5043663;28;20468;-84
2023/11/11 15:17:06;;;;;;;2.50;1.70;;;;;;;;;;5042525;28;20457;-85
2023/11/11 15:19:35;;;;;;;3.43;1.50;;;;;;;;;;5037545;28;20458;-85
2023/11/11 15:22:07;;;;;;;1.70;1.47;;;;;;;;;;5027649;28;20940;-84